Time;durP1;ratioP1;P1;durP2;ratioP2;P2;SDS_P1;SDS_P2;PMS_P1;PMS_P2;Temp;Humidity;BMP_temperature;BMP_pressure;BME280_temperature;BME280_humidity;BME280_pressure;Samples;Min_cycle;Max_cycle;Signal;HPM_P1;HPM_P2
2022/05/20 00:03:20;;;;;;;8.77;4.45;;;;;;;11.32;91.46;100444.94;10458523;28;20115;-76
2022/05/20 00:08:21;;;;;;;7.28;4.35;;;;;;;11.21;91.51;100451.44;10464061;28;20156;-76
2022/05/20 00:13:27;;;;;;;8.70;4.60;;;;;;;11.33;93.13;100454.56;10456939;28;20424;-75
2022/05/20 00:18:28;;;;;;;7.28;4.30;;;;;;;11.13;91.84;100436.34;10457009;28;20048;-75
2022/05/20 00:23:28;;;;;;;6.90;4.47;;;;;;;11.29;92.34;100455.91;10455545;28;20066;-75
2022/05/20 00:28:29;;;;;;;6.72;4.47;;;;;;;11.32;92.39;100440.44;10455581;28;20037;-75
2022/05/20 00:33:31;;;;;;;8.55;4.32;;;;;;;11.34;92.13;100438.44;10456687;28;20045;-75
2022/05/20 00:38:32;;;;;;;10.00;4.78;;;;;;;10.67;91.79;100319.16;10454037;28;20067;-75
2022/05/20 00:43:33;;;;;;;6.25;4.35;;;;;;;11.39;92.42;100435.25;10455414;28;20048;-75
2022/05/20 00:48:34;;;;;;;7.97;4.97;;;;;;;11.34;92.76;100427.00;10455810;28;20638;-75
2022/05/20 00:53:47;;;;;;;8.82;4.55;;;;;;;11.20;93.44;100407.25;10455290;28;20037;-74
2022/05/20 00:58:49;;;;;;;6.78;4.20;;;;;;;11.31;92.38;100422.84;10454354;28;20449;-75
2022/05/20 01:03:52;;;;;;;6.05;4.13;;;;;;;11.27;92.07;100429.47;10454496;28;20048;-76
2022/05/20 01:08:53;;;;;;;6.10;4.30;;;;;;;10.61;92.14;100335.75;10454785;28;20045;-75
2022/05/20 01:13:54;;;;;;;6.32;4.90;;;;;;;11.12;92.25;100432.00;10454178;28;20075;-74
2022/05/20 01:18:56;;;;;;;8.45;4.90;;;;;;;11.13;92.97;100444.31;10454722;28;20091;-74
2022/05/20 01:24:03;;;;;;;6.65;4.63;;;;;;;11.02;94.97;100438.53;10487036;28;20047;-74
2022/05/20 01:29:03;;;;;;;6.05;4.10;;;;;;;10.01;92.86;100288.31;10495477;28;20041;-74
2022/05/20 01:34:04;;;;;;;9.43;4.75;;;;;;;9.44;92.80;100188.31;10495122;28;20040;-74
2022/05/20 01:39:05;;;;;;;9.00;4.65;;;;;;;10.15;92.60;100316.03;10495583;28;20076;-74
2022/05/20 01:44:16;;;;;;;7.05;4.43;;;;;;;10.79;95.24;100417.94;10494938;28;20052;-73
2022/05/20 01:49:32;;;;;;;7.00;4.47;;;;;;;10.80;92.65;100414.31;10495916;28;20541;-73
2022/05/20 01:54:39;;;;;;;9.73;4.80;;;;;;;10.86;94.19;100423.41;10464075;28;20049;-73
2022/05/20 01:59:45;;;;;;;5.85;4.20;;;;;;;10.78;93.87;100388.88;10452221;28;20062;-73
2022/05/20 02:04:52;;;;;;;17.73;4.38;;;;;;;10.66;93.64;100367.16;10452917;28;20134;-73
2022/05/20 02:10:01;;;;;;;8.20;4.38;;;;;;;10.82;93.61;100390.19;10454208;28;20124;-74
2022/05/20 02:15:12;;;;;;;6.07;3.95;;;;;;;10.16;93.27;100268.06;10473447;28;20056;-73
2022/05/20 02:20:23;;;;;;;8.73;4.10;;;;;;;10.90;92.62;100387.53;10471364;28;20041;-73
2022/05/20 02:25:28;;;;;;;8.50;4.30;;;;;;;10.23;92.48;100273.53;10460883;28;20037;-73
2022/05/20 02:30:33;;;;;;;8.98;3.60;;;;;;;10.24;91.21;100270.72;10461565;28;20041;-73
2022/05/20 02:35:35;;;;;;;9.65;3.28;;;;;;;10.76;90.47;100397.00;10461410;28;20119;-73
2022/05/20 02:40:37;;;;;;;8.13;3.35;;;;;;;10.99;90.18;100431.72;10459555;28;20562;-73
2022/05/20 02:45:40;;;;;;;6.32;3.20;;;;;;;10.96;89.60;100416.09;10460042;28;20040;-72
2022/05/20 02:50:41;;;;;;;7.30;3.40;;;;;;;10.24;88.58;100228.25;10459463;28;20036;-73
2022/05/20 02:55:42;;;;;;;4.32;2.92;;;;;;;13.43;84.22;100398.31;10471891;28;20068;-73
2022/05/20 03:06:02;;;;;;;5.22;3.00;;;;;;;14.99;75.80;100309.41;10459322;28;20524;-74
2022/05/20 03:11:03;;;;;;;6.00;3.17;;;;;;;15.17;75.95;100423.13;10458890;28;20148;-73
2022/05/20 03:16:04;;;;;;;4.70;2.60;;;;;;;14.29;75.01;100398.50;10458619;28;20049;-77
2022/05/20 03:21:05;;;;;;;5.63;1.90;;;;;;;13.50;73.83;100356.56;10458404;28;20072;-74
2022/05/20 03:26:08;;;;;;;4.05;2.10;;;;;;;12.51;73.11;100298.16;10447497;28;20173;-76
2022/05/20 03:31:09;;;;;;;4.53;2.13;;;;;;;13.07;74.47;100416.88;10469164;28;20049;-72
2022/05/20 03:36:11;;;;;;;7.28;2.15;;;;;;;12.51;73.32;100298.16;10457635;28;20043;-72
2022/05/20 03:41:11;;;;;;;5.10;2.25;;;;;;;13.40;71.96;100364.88;10457493;28;20048;-71
2022/05/20 03:46:12;;;;;;;3.58;2.22;;;;;;;13.31;72.63;100415.81;10457298;28;20408;-73
2022/05/20 03:51:14;;;;;;;5.00;2.40;;;;;;;11.61;73.37;100220.84;10457830;28;20045;-70
2022/05/20 03:56:15;;;;;;;3.20;2.15;;;;;;;13.45;72.55;100417.66;10457471;28;20076;-75
2022/05/20 04:06:37;;;;;;;4.80;1.60;;;;;;;15.50;67.65;100404.56;10455997;28;20045;-72
2022/05/20 04:11:38;;;;;;;6.97;1.80;;;;;;;16.50;65.69;100378.88;10457203;28;20085;-73
2022/05/20 04:16:39;;;;;;;1.95;1.00;;;;;;;18.75;61.08;100386.25;10456804;28;20061;-71
2022/05/20 04:21:41;;;;;;;2.28;1.33;;;;;;;19.54;58.69;100385.44;10455778;28;20041;-75
2022/05/20 04:26:42;;;;;;;3.67;1.70;;;;;;;18.45;59.78;100349.22;10455419;28;20068;-70
2022/05/20 04:31:46;;;;;;;3.25;1.30;;;;;;;17.65;59.95;100386.50;10454675;28;20041;-72
2022/05/20 04:36:48;;;;;;;3.13;1.35;;;;;;;16.18;62.15;100388.50;10454400;28;20041;-73
2022/05/20 04:47:16;;;;;;;3.83;1.92;;;;;;;14.54;64.00;100327.63;10455520;28;20047;-74
2022/05/20 04:52:18;;;;;;;4.38;1.58;;;;;;;14.13;64.68;100282.84;10455716;28;20041;-73
2022/05/20 04:57:27;;;;;;;3.20;1.52;;;;;;;14.24;65.41;100267.31;10455304;28;20041;-78
2022/05/20 05:02:28;;;;;;;3.67;1.25;;;;;;;14.70;65.04;100389.84;10453206;28;20080;-70
2022/05/20 05:07:28;;;;;;;4.90;1.02;;;;;;;14.37;65.16;100411.75;10454073;28;20621;-71
2022/05/20 05:12:30;;;;;;;3.75;1.17;;;;;;;13.64;66.30;100312.16;10461914;28;20139;-72
2022/05/20 05:22:54;;;;;;;3.42;1.00;;;;;;;14.52;66.35;100387.66;10467792;28;20412;-71
2022/05/20 05:27:55;;;;;;;3.15;1.08;;;;;;;15.67;65.07;100402.34;10494493;28;20066;-70
2022/05/20 05:32:56;;;;;;;5.63;1.05;;;;;;;14.49;63.95;100139.41;10496325;28;20047;-70
2022/05/20 05:37:57;;;;;;;3.97;1.15;;;;;;;15.76;63.72;100390.47;10495914;28;20032;-69
2022/05/20 05:42:59;;;;;;;8.40;1.20;;;;;;;14.90;63.71;100273.13;10496234;28;20064;-75
2022/05/20 05:48:05;;;;;;;4.75;1.23;;;;;;;15.40;64.13;100377.31;10496226;28;20045;-69
2022/05/20 05:53:08;;;;;;;4.40;1.52;;;;;;;15.92;63.23;100395.47;10477089;28;20040;-71
2022/05/20 05:58:09;;;;;;;2.67;1.33;;;;;;;16.43;61.76;100394.94;10500237;28;20044;-72
2022/05/20 06:03:10;;;;;;;4.50;1.45;;;;;;;15.88;61.58;100291.59;10502176;28;20051;-72
2022/05/20 06:08:11;;;;;;;6.43;1.27;;;;;;;16.43;61.32;100402.19;10503471;28;20488;-72
2022/05/20 06:13:13;;;;;;;9.85;1.45;;;;;;;16.02;62.00;100389.72;10502879;28;20061;-71
2022/05/20 06:18:14;;;;;;;4.32;1.35;;;;;;;15.76;62.11;100395.81;10493421;28;20186;-71
2022/05/20 06:23:15;;;;;;;15.27;2.38;;;;;;;15.04;62.02;100285.53;10470734;28;20669;-82
2022/05/20 06:28:18;;;;;;;17.02;1.88;;;;;;;15.76;61.57;100377.06;10461461;28;20048;-77
2022/05/20 06:33:18;;;;;;;3.25;1.40;;;;;;;16.00;61.34;100367.66;10460535;28;20389;-70
2022/05/20 06:43:39;;;;;;;3.53;1.63;;;;;;;15.42;60.21;100271.69;10497466;28;20393;-77
2022/05/20 06:48:53;;;;;;;14.73;2.17;;;;;;;16.37;59.41;100401.13;10500971;28;20036;-72
2022/05/20 06:53:56;;;;;;;5.43;1.58;;;;;;;16.37;60.49;100411.03;10500574;28;20048;-74
2022/05/20 06:58:59;;;;;;;4.32;1.35;;;;;;;16.13;59.66;100340.09;10501033;28;20400;-70
2022/05/20 07:04:00;;;;;;;3.75;1.63;;;;;;;16.39;59.56;100384.84;10500634;28;20074;-75
2022/05/20 07:09:03;;;;;;;11.27;1.60;;;;;;;15.94;59.96;100270.19;10501207;28;20093;-68
2022/05/20 07:14:03;;;;;;;5.75;1.30;;;;;;;16.85;58.61;100395.59;10500756;28;20049;-71
2022/05/20 07:19:05;;;;;;;4.72;1.38;;;;;;;15.77;57.75;100185.09;10499930;28;20040;-71
2022/05/20 07:24:06;;;;;;;6.40;1.50;;;;;;;17.44;56.96;100385.78;10476656;28;20070;-70
2022/05/20 07:29:08;;;;;;;4.15;1.30;;;;;;;17.75;56.72;100393.06;10499870;28;20044;-70
2022/05/20 07:34:09;;;;;;;66.97;3.17;;;;;;;17.04;55.92;100270.47;10500099;28;20037;-75
2022/05/20 07:39:10;;;;;;;17.27;1.52;;;;;;;18.06;54.85;100396.88;10472978;28;20032;-79
2022/05/20 07:44:11;;;;;;;4.25;0.90;;;;;;;17.24;54.00;100270.38;10456770;28;20048;-80
2022/05/20 07:49:12;;;;;;;5.22;1.50;;;;;;;17.02;53.31;100293.19;10457389;28;20496;-72
2022/05/20 07:54:23;;;;;;;2.47;1.00;;;;;;;16.40;55.02;100331.03;10456847;28;20051;-67
2022/05/20 07:59:30;;;;;;;13.77;1.23;;;;;;;16.48;58.93;100458.69;10456657;28;20041;-71
2022/05/20 08:20:55;;;;;;;4.53;0.88;;;;;;;14.70;66.40;100412.06;10516145;27;1642419;-71
2022/05/20 08:25:56;;;;;;;3.67;1.27;;;;;;;15.49;64.48;100374.25;10531659;28;20499;-71
2022/05/20 08:30:57;;;;;;;2.80;1.65;;;;;;;16.44;63.34;100387.72;10531929;28;20128;-71
2022/05/20 08:35:58;;;;;;;4.63;2.00;;;;;;;17.07;62.70;100400.72;10531078;28;20130;-71
2022/05/20 08:41:00;;;;;;;4.75;2.00;;;;;;;17.33;61.49;100364.94;10530760;28;20042;-70
2022/05/20 08:46:02;;;;;;;8.43;2.10;;;;;;;17.95;60.70;100384.97;10531164;28;20132;-69
2022/05/20 08:51:03;;;;;;;5.72;2.05;;;;;;;18.31;58.91;100364.66;10512804;28;20040;-69
2022/05/20 08:56:10;;;;;;;3.33;1.88;;;;;;;18.71;57.13;100358.94;10530204;28;20070;-71
2022/05/20 09:01:11;;;;;;;4.90;2.00;;;;;;;18.96;55.85;100356.25;10530223;28;20041;-70
2022/05/20 09:06:15;;;;;;;8.10;2.22;;;;;;;19.55;54.64;100368.22;10529562;28;20100;-72
2022/05/20 09:11:29;;;;;;;3.97;1.90;;;;;;;19.78;51.05;100345.97;10487047;28;20049;-70
2022/05/20 09:16:32;;;;;;;3.42;2.00;;;;;;;19.76;50.79;100355.34;10445868;28;20111;-65
2022/05/20 09:21:39;;;;;;;13.50;2.03;;;;;;;19.16;49.84;100229.47;10420604;28;20037;-65
2022/05/20 09:26:47;;;;;;;7.07;1.90;;;;;;;20.01;48.68;100339.84;10418300;28;20053;-69
2022/05/20 09:31:58;;;;;;;5.00;1.92;;;;;;;20.39;48.64;100327.00;10401181;28;20037;-69
2022/05/20 09:37:16;;;;;;;6.50;1.80;;;;;;;20.16;48.53;100354.75;10401689;28;20044;-68
2022/05/20 09:42:23;;;;;;;6.10;1.60;;;;;;;19.69;46.91;100244.13;10400726;28;20069;-67
2022/05/20 09:47:30;;;;;;;7.50;1.60;;;;;;;19.67;48.40;100368.31;10417380;28;20053;-69
2022/05/20 09:52:31;;;;;;;4.90;1.80;;;;;;;18.96;51.10;100368.88;10414398;28;20045;-70
2022/05/20 09:57:39;;;;;;;3.97;1.50;;;;;;;19.65;50.89;100365.00;10417779;28;20086;-65
2022/05/20 10:03:13;;;;;;;3.47;0.73;;;;;;;19.32;49.55;100386.94;10418182;28;20045;-66
2022/05/20 10:08:34;;;;;;;2.22;0.73;;;;;;;17.99;54.46;100390.72;10416603;28;20044;-68
2022/05/20 10:13:46;;;;;;;3.17;1.25;;;;;;;17.72;56.77;100344.31;10416955;28;20037;-69
2022/05/20 10:18:58;;;;;;;2.85;1.10;;;;;;;18.37;53.48;100366.47;10416273;28;20057;-68
2022/05/20 10:24:32;;;;;;;3.80;0.95;;;;;;;18.65;52.82;100357.97;10416694;28;20500;-68
2022/05/20 10:35:30;;;;;;;4.53;1.55;;;;;;;18.95;47.66;100225.41;10415836;28;20104;-70
2022/05/20 10:40:39;;;;;;;3.10;1.38;;;;;;;19.79;46.88;100333.31;10415469;28;20049;-70
2022/05/20 10:51:36;;;;;;;3.78;1.20;;;;;;;20.39;43.40;100206.41;10415743;28;20103;-70
2022/05/20 10:56:50;;;;;;;5.80;1.13;;;;;;;21.35;41.59;100324.84;10415521;28;20042;-68
2022/05/20 11:02:09;;;;;;;6.22;1.33;;;;;;;21.81;40.57;100331.19;10415777;28;20052;-68
2022/05/20 11:07:22;;;;;;;3.45;1.15;;;;;;;21.18;41.40;100336.41;10414316;28;20049;-71
2022/05/20 11:13:08;;;;;;;3.80;1.20;;;;;;;20.79;42.04;100329.88;10414670;28;20490;-69
2022/05/20 11:18:38;;;;;;;6.07;1.10;;;;;;;20.91;40.57;100325.28;10399555;28;20103;-68
2022/05/20 11:23:45;;;;;;;2.63;0.88;;;;;;;21.14;39.56;100320.91;10360252;28;20053;-68
2022/05/20 11:28:58;;;;;;;3.75;0.90;;;;;;;19.73;39.47;100175.22;10435736;28;20045;-72
2022/05/20 11:34:17;;;;;;;3.42;0.70;;;;;;;20.18;43.58;100430.88;10412946;28;20421;-71
2022/05/20 11:40:00;;;;;;;5.68;1.10;;;;;;;16.15;57.76;100285.25;10413403;28;20044;-72
2022/05/20 11:45:36;;;;;;;2.78;0.75;;;;;;;14.73;72.04;100462.47;10412622;28;20033;-70
2022/05/20 11:51:18;;;;;;;2.08;0.60;;;;;;;13.95;70.14;100498.00;10413575;28;20049;-70
2022/05/20 11:56:42;;;;;;;2.65;0.70;;;;;;;13.56;72.05;100531.97;10389277;28;20077;-68
2022/05/20 12:01:47;;;;;;;;;;;;;;;13.42;69.14;100522.09;10412453;28;20392;-68
2022/05/20 12:06:49;;;;;;;1.45;0.50;;;;;;;12.24;73.91;100397.28;10412577;28;20338;-68
2022/05/20 12:12:24;;;;;;;2.22;0.50;;;;;;;13.18;72.14;100566.63;10395134;28;20115;-67
2022/05/20 12:17:46;;;;;;;1.60;0.40;;;;;;;13.21;72.47;100566.28;10417089;28;20396;-69
2022/05/20 12:28:23;;;;;;;4.15;0.70;;;;;;;13.78;74.34;100588.97;10446992;28;20050;-71
2022/05/20 12:33:27;;;;;;;2.15;0.88;;;;;;;14.12;73.52;100551.03;10452293;28;20041;-70
2022/05/20 12:38:28;;;;;;;3.65;1.20;;;;;;;14.31;72.76;100516.72;10494796;28;20045;-69
2022/05/20 12:43:46;;;;;;;1.33;0.65;;;;;;;14.48;69.17;100536.00;10424345;28;20037;-68
2022/05/20 12:48:48;;;;;;;1.27;0.65;;;;;;;13.10;70.19;100301.81;10410626;28;20045;-69
2022/05/20 12:53:49;;;;;;;2.42;1.42;;;;;;;14.42;70.50;100456.59;10468711;28;20040;-70
2022/05/20 12:58:50;;;;;;;5.93;1.23;;;;;;;14.98;69.51;100511.03;10474479;28;20070;-71
2022/05/20 13:03:51;;;;;;;2.17;0.98;;;;;;;15.17;67.55;100528.28;10501976;28;20074;-75
2022/05/20 13:09:02;;;;;;;9.85;1.95;;;;;;;15.27;61.80;100485.94;10467501;28;20037;-71
2022/05/20 13:14:03;;;;;;;7.28;1.52;;;;;;;15.51;63.22;100443.69;10419513;28;20041;-73
2022/05/20 13:19:11;;;;;;;1.52;0.70;;;;;;;16.26;60.75;100497.41;10459337;28;20481;-72
2022/05/20 13:24:18;;;;;;;1.75;0.75;;;;;;;15.75;59.28;100343.28;10435605;28;20044;-70
2022/05/20 13:29:21;;;;;;;2.25;0.75;;;;;;;16.42;59.43;100497.88;10437995;28;20076;-73
2022/05/20 13:34:22;;;;;;;4.13;0.98;;;;;;;15.00;58.51;100347.66;10453178;28;20048;-74
2022/05/20 13:39:23;;;;;;;1.48;0.68;;;;;;;15.88;59.69;100572.88;10427181;28;20036;-71
2022/05/20 13:44:25;;;;;;;2.42;0.70;;;;;;;15.45;60.89;100528.28;10443933;28;20040;-71
2022/05/20 13:49:27;;;;;;;3.42;0.93;;;;;;;14.98;62.90;100553.84;10438751;28;20036;-70
2022/05/20 13:54:35;;;;;;;2.05;1.00;;;;;;;14.47;67.12;100561.91;10418126;28;20120;-70
2022/05/20 13:59:37;;;;;;;1.45;0.90;;;;;;;12.97;68.93;100382.47;10417916;28;20037;-71
2022/05/20 14:04:45;;;;;;;2.70;1.27;;;;;;;13.67;69.89;100534.19;10432890;28;20037;-70
2022/05/20 14:09:50;;;;;;;1.70;1.20;;;;;;;13.58;71.69;100523.75;10442732;28;20547;-70
2022/05/20 14:15:01;;;;;;;5.05;0.95;;;;;;;13.60;73.03;100506.56;10438622;28;20045;-71
2022/05/20 14:20:09;;;;;;;7.00;1.02;;;;;;;13.68;72.52;100487.78;10444511;28;20063;-72
2022/05/20 14:25:30;;;;;;;1.42;0.68;;;;;;;13.91;70.69;100490.34;10444044;28;20040;-72
2022/05/20 14:30:35;;;;;;;1.63;0.75;;;;;;;14.26;68.35;100487.06;10460577;28;20048;-71
2022/05/20 14:35:44;;;;;;;3.15;0.65;;;;;;;14.88;65.80;100512.41;10443968;28;20520;-71
2022/05/20 14:40:51;;;;;;;2.97;0.60;;;;;;;15.20;64.44;100479.75;10475945;28;20557;-70
2022/05/20 14:45:55;;;;;;;1.35;0.57;;;;;;;14.68;64.00;100375.84;10424714;28;20165;-72
2022/05/20 14:50:58;;;;;;;1.45;0.60;;;;;;;15.79;63.37;100499.06;10432076;28;20505;-71
2022/05/20 14:56:03;;;;;;;1.98;0.70;;;;;;;15.92;63.02;100502.66;10431941;28;20037;-72
2022/05/20 15:01:11;;;;;;;2.33;0.60;;;;;;;16.08;63.92;100511.38;10445638;28;20127;-72
2022/05/20 15:06:20;;;;;;;0.85;0.50;;;;;;;16.12;62.94;100517.97;10430234;28;20038;-72
2022/05/20 15:11:29;;;;;;;3.65;0.82;;;;;;;15.98;63.10;100499.16;10420627;28;20131;-71
2022/05/20 15:16:30;;;;;;;1.05;0.52;;;;;;;15.82;63.36;100507.53;10455403;28;20053;-71
2022/05/20 15:21:34;;;;;;;1.67;0.50;;;;;;;15.49;62.96;100481.34;10456371;28;20041;-71
2022/05/20 15:26:39;;;;;;;2.53;0.47;;;;;;;15.39;62.81;100501.47;10455231;28;20127;-71
2022/05/20 15:37:05;;;;;;;3.60;0.50;;;;;;;14.80;63.95;100526.72;10455921;28;20138;-71
2022/05/20 15:42:08;;;;;;;0.90;0.47;;;;;;;14.50;64.77;100520.63;10455255;28;20089;-70
2022/05/20 15:47:10;;;;;;;0.85;0.40;;;;;;;14.14;65.21;100492.06;10451499;28;20045;-70
2022/05/20 15:52:14;;;;;;;1.73;0.70;;;;;;;14.21;66.21;100542.88;10412959;28;20554;-70
2022/05/20 15:57:18;;;;;;;0.98;0.45;;;;;;;14.03;66.77;100560.16;10414179;28;20037;-70
2022/05/20 16:02:22;;;;;;;2.15;0.63;;;;;;;12.52;66.21;100326.44;10413706;28;20064;-71
2022/05/20 16:07:23;;;;;;;0.73;0.40;;;;;;;13.89;66.27;100559.13;10411485;28;20144;-71
2022/05/20 16:12:23;;;;;;;3.63;0.55;;;;;;;13.48;66.13;100508.03;10413056;28;20132;-70
2022/05/20 16:17:24;;;;;;;0.93;0.50;;;;;;;13.81;65.91;100582.44;10412448;28;20049;-70
2022/05/20 16:22:29;;;;;;;1.35;0.50;;;;;;;13.66;65.95;100564.56;10413577;28;20099;-70
2022/05/20 16:27:31;;;;;;;5.03;1.15;;;;;;;13.65;66.40;100573.59;10412658;28;20053;-71
2022/05/20 16:32:32;;;;;;;3.92;1.00;;;;;;;13.59;66.07;100571.66;10420516;28;20100;-77
2022/05/20 16:37:34;;;;;;;2.80;0.75;;;;;;;13.50;66.92;100588.75;10391431;28;20145;-72
2022/05/20 16:42:39;;;;;;;2.15;0.50;;;;;;;13.38;67.48;100582.19;10379852;28;20093;-71
2022/05/20 16:47:48;;;;;;;2.20;0.65;;;;;;;13.20;68.22;100575.28;10362002;28;20045;-74
2022/05/20 16:52:50;;;;;;;1.42;0.57;;;;;;;13.23;68.32;100584.78;10379931;28;20037;-73
2022/05/20 17:03:10;;;;;;;0.98;0.50;;;;;;;13.01;67.97;100555.28;10378903;28;20038;-70
2022/05/20 17:08:12;;;;;;;1.10;0.47;;;;;;;13.19;67.90;100589.66;10378765;28;20061;-74
2022/05/20 17:13:23;;;;;;;1.90;0.50;;;;;;;11.18;67.23;100258.50;10377209;28;20041;-77
2022/05/20 17:18:24;;;;;;;1.00;0.50;;;;;;;13.19;66.90;100595.00;10373201;28;20058;-70
2022/05/20 17:28:44;;;;;;;0.63;0.40;;;;;;;12.92;67.75;100571.50;10383550;28;20488;-72
2022/05/20 17:33:45;;;;;;;0.43;0.30;;;;;;;13.15;67.86;100607.00;10372956;28;20038;-73
2022/05/20 17:38:46;;;;;;;0.80;0.40;;;;;;;12.44;67.96;100510.34;10369297;28;20071;-72
2022/05/20 17:43:47;;;;;;;2.13;0.70;;;;;;;12.12;68.28;100479.41;10387214;28;20501;-72
2022/05/20 17:48:47;;;;;;;1.42;0.60;;;;;;;11.77;68.44;100412.34;10393799;28;20603;-72
2022/05/20 17:53:49;;;;;;;3.92;0.68;;;;;;;11.71;69.09;100439.66;10392465;28;20492;-72
2022/05/20 17:58:50;;;;;;;1.73;0.70;;;;;;;12.57;69.71;100592.41;10407415;28;20045;-73
2022/05/20 18:03:51;;;;;;;3.28;0.80;;;;;;;12.62;69.95;100608.66;10452834;28;20049;-73
2022/05/20 18:08:52;;;;;;;1.92;0.75;;;;;;;12.72;70.74;100641.28;10421307;28;20049;-73
2022/05/20 18:13:53;;;;;;;3.35;1.00;;;;;;;12.52;70.73;100632.06;10400362;28;20435;-73
2022/05/20 18:18:54;;;;;;;1.67;0.85;;;;;;;11.66;71.18;100500.53;10416791;28;20064;-73
2022/05/20 18:23:54;;;;;;;1.55;0.68;;;;;;;12.49;72.07;100640.41;10416212;28;20060;-73
2022/05/20 18:28:55;;;;;;;1.83;0.90;;;;;;;12.33;73.98;100630.66;10398191;28;20393;-72
2022/05/20 18:33:56;;;;;;;1.50;0.90;;;;;;;12.18;74.89;100603.91;10416414;28;20083;-71
2022/05/20 18:39:30;;;;;;;2.65;1.08;;;;;;;11.90;76.41;100546.72;10416150;28;20128;-72
2022/05/20 18:44:23;;;;;;;2.30;0.95;;;;;;;12.27;76.75;100581.56;10394610;28;20045;-71
2022/05/20 18:49:24;;;;;;;2.63;1.20;;;;;;;12.34;76.78;100589.66;10367063;28;20062;-72
2022/05/20 18:54:25;;;;;;;2.30;0.98;;;;;;;11.17;76.68;100395.09;10373421;28;20109;-72
2022/05/20 18:59:27;;;;;;;2.65;1.17;;;;;;;12.45;77.25;100575.16;10357510;28;20064;-72
2022/05/20 19:04:27;;;;;;;1.90;1.00;;;;;;;12.45;77.27;100559.97;10374542;28;20049;-72
2022/05/20 19:09:28;;;;;;;2.97;1.25;;;;;;;12.57;77.69;100565.75;10391651;28;20041;-72
2022/05/20 19:14:29;;;;;;;2.13;0.90;;;;;;;12.43;78.31;100543.34;10442523;28;20053;-71
2022/05/20 19:19:30;;;;;;;7.93;1.27;;;;;;;12.56;78.08;100578.25;10451702;28;20079;-70
2022/05/20 19:24:31;;;;;;;2.50;0.90;;;;;;;12.25;78.35;100521.47;10455154;28;20049;-70
2022/05/20 19:29:33;;;;;;;6.40;1.48;;;;;;;10.45;77.71;100234.88;10438144;28;20040;-71
2022/05/20 19:34:34;;;;;;;2.50;1.02;;;;;;;12.36;78.97;100552.22;10455324;28;20040;-71
2022/05/20 19:39:35;;;;;;;3.90;1.17;;;;;;;12.14;78.49;100541.31;10438094;28;20123;-71
2022/05/20 19:44:36;;;;;;;1.95;1.05;;;;;;;12.03;78.21;100547.88;10427374;28;20044;-71
2022/05/20 19:49:37;;;;;;;2.05;1.00;;;;;;;11.87;77.95;100514.13;10420748;28;20053;-71
2022/05/20 19:54:38;;;;;;;4.20;1.40;;;;;;;11.72;77.80;100497.19;10395772;28;20068;-72
2022/05/20 20:04:58;;;;;;;2.25;1.02;;;;;;;11.17;76.70;100408.41;10412734;28;20033;-71
2022/05/20 20:10:00;;;;;;;4.00;1.30;;;;;;;11.06;77.01;100399.97;10412453;28;20049;-71
2022/05/20 20:15:03;;;;;;;4.15;1.30;;;;;;;11.08;76.63;100403.28;10412690;28;20048;-70
2022/05/20 20:20:07;;;;;;;2.55;1.20;;;;;;;11.79;76.83;100532.78;10413582;28;20061;-72
2022/05/20 20:30:27;;;;;;;9.82;1.38;;;;;;;11.79;76.80;100545.25;10412773;28;20048;-71
2022/05/20 20:35:28;;;;;;;3.28;1.35;;;;;;;11.64;77.74;100537.16;10412706;28;20045;-71
2022/05/20 20:40:29;;;;;;;9.02;1.52;;;;;;;11.49;78.37;100544.16;10412028;28;20049;-71
2022/05/20 20:45:30;;;;;;;1.85;1.02;;;;;;;11.24;78.97;100520.22;10413307;28;20065;-71
2022/05/20 20:50:32;;;;;;;2.50;1.50;;;;;;;11.17;79.00;100495.31;10395242;28;20045;-71
2022/05/20 20:55:33;;;;;;;3.60;1.88;;;;;;;11.23;79.40;100510.59;10394674;28;20156;-72
2022/05/20 21:00:34;;;;;;;2.13;1.42;;;;;;;10.90;79.31;100435.38;10411830;28;20160;-71
2022/05/20 21:05:35;;;;;;;2.92;1.48;;;;;;;11.43;79.11;100517.22;10411663;28;20042;-71
2022/05/20 21:10:36;;;;;;;3.13;1.42;;;;;;;10.57;78.22;100376.94;10412292;28;20042;-70
2022/05/20 21:15:40;;;;;;;3.33;1.80;;;;;;;9.49;78.28;100186.00;10415322;28;20037;-71
2022/05/20 21:20:46;;;;;;;4.65;1.95;;;;;;;11.52;77.70;100506.56;10419986;28;20066;-72
2022/05/20 21:25:48;;;;;;;2.58;1.80;;;;;;;11.30;77.74;100477.00;10418760;28;20130;-70
2022/05/20 21:30:50;;;;;;;4.25;1.63;;;;;;;11.49;77.75;100506.91;10418168;28;20416;-70
2022/05/20 21:35:51;;;;;;;4.40;1.52;;;;;;;11.26;77.37;100465.06;10419347;28;20071;-70
2022/05/20 21:40:53;;;;;;;3.25;1.80;;;;;;;11.53;77.51;100513.56;10401095;28;20045;-70
2022/05/20 21:45:53;;;;;;;3.17;1.80;;;;;;;10.44;77.52;100324.34;10418365;28;20056;-70
2022/05/20 21:50:54;;;;;;;5.63;1.90;;;;;;;11.51;77.31;100500.41;10418168;28;20048;-71
2022/05/20 21:55:55;;;;;;;3.17;1.60;;;;;;;10.64;77.28;100348.72;10384490;28;20060;-72
2022/05/20 22:11:37;;;;;;;7.30;2.10;;;;;;;11.35;77.43;100498.63;10376550;28;20061;-71
2022/05/20 22:16:38;;;;;;;3.80;2.00;;;;;;;11.31;77.07;100509.78;10358512;28;20045;-71
2022/05/20 22:21:39;;;;;;;4.28;2.13;;;;;;;11.24;76.95;100487.50;10376133;28;20041;-71
2022/05/20 22:26:40;;;;;;;3.67;1.98;;;;;;;11.12;77.12;100479.03;10375869;28;20038;-71
2022/05/20 22:31:40;;;;;;;3.65;2.10;;;;;;;11.33;76.75;100508.59;10358256;28;20069;-70
2022/05/20 22:36:41;;;;;;;3.67;1.90;;;;;;;11.19;76.86;100493.34;10375504;28;20042;-71
2022/05/20 22:41:42;;;;;;;5.03;2.05;;;;;;;9.41;76.31;100195.75;10375352;28;20056;-71
2022/05/20 22:46:43;;;;;;;5.32;1.92;;;;;;;11.24;76.61;100528.22;10375587;28;20080;-71
2022/05/20 22:51:44;;;;;;;3.60;1.90;;;;;;;10.99;76.89;100478.72;10374671;28;20046;-71
2022/05/20 22:56:46;;;;;;;3.50;2.13;;;;;;;10.21;76.94;100371.13;10374816;28;20042;-71
2022/05/20 23:01:49;;;;;;;3.67;2.13;;;;;;;10.85;77.18;100482.88;10373375;28;20033;-71
2022/05/20 23:06:50;;;;;;;3.17;2.00;;;;;;;10.07;77.19;100364.63;10374300;28;20045;-70
2022/05/20 23:11:50;;;;;;;3.80;1.92;;;;;;;10.07;77.03;100365.44;10374193;28;20048;-71
2022/05/20 23:16:51;;;;;;;4.80;2.30;;;;;;;10.78;77.06;100496.00;10374005;28;20058;-70
2022/05/20 23:21:52;;;;;;;3.28;2.00;;;;;;;10.95;77.21;100513.63;10375110;28;20050;-71
2022/05/20 23:26:53;;;;;;;3.65;2.10;;;;;;;9.75;77.00;100314.97;10373064;28;20600;-70
2022/05/20 23:31:55;;;;;;;8.07;2.65;;;;;;;10.27;77.26;100405.00;10373260;28;20558;-71
2022/05/20 23:36:55;;;;;;;4.85;2.67;;;;;;;10.88;77.13;100493.19;10372781;28;20046;-71
2022/05/20 23:41:56;;;;;;;4.15;2.38;;;;;;;10.91;76.62;100506.13;10372562;28;20038;-71
2022/05/20 23:46:57;;;;;;;14.50;2.42;;;;;;;10.59;76.85;100438.72;10355397;28;20052;-71
2022/05/20 23:51:59;;;;;;;5.55;2.33;;;;;;;10.11;77.28;100381.03;10372481;28;20091;-70
2022/05/20 23:57:09;;;;;;;5.18;2.22;;;;;;;10.84;77.32;100508.63;10354786;28;20417;-71
